Time;durP1;ratioP1;P1;durP2;ratioP2;P2;SDS_P1;SDS_P2;PMS_P1;PMS_P2;Temp;Humidity;BMP_temperature;BMP_pressure;BME280_temperature;BME280_humidity;BME280_pressure;Samples;Min_cycle;Max_cycle;Signal;HPM_P1;HPM_P2
2022/10/06 00:00:36;;;;;;;5.70;1.33;;;13.90;99.90;;;;;;4978983;28;94839;-32
2022/10/06 00:03:01;;;;;;;5.95;1.58;;;13.90;99.90;;;;;;4979934;28;94767;-35
2022/10/06 00:05:27;;;;;;;3.95;1.30;;;13.90;99.90;;;;;;4978603;28;95288;-34
2022/10/06 00:07:53;;;;;;;2.45;1.10;;;13.90;99.90;;;;;;4979305;28;93568;-35
2022/10/06 00:10:18;;;;;;;5.47;0.93;;;13.90;99.90;;;;;;4978825;28;94439;-32
2022/10/06 00:12:46;;;;;;;2.10;1.40;;;13.90;99.90;;;;;;4978781;28;94694;-32
2022/10/06 00:15:14;;;;;;;4.90;1.10;;;13.80;99.90;;;;;;4979720;28;93713;-34
2022/10/06 00:17:40;;;;;;;1.87;1.67;;;13.80;99.90;;;;;;4979109;28;93736;-32
2022/10/06 00:20:07;;;;;;;6.10;1.23;;;13.80;99.90;;;;;;4978542;28;94652;-33
2022/10/06 00:22:35;;;;;;;5.00;2.47;;;13.80;99.90;;;;;;4978848;28;94324;-34
2022/10/06 00:25:01;;;;;;;4.43;1.98;;;13.80;99.90;;;;;;4979157;28;93028;-33
2022/10/06 00:27:43;;;;;;;5.78;1.50;;;13.80;99.90;;;;;;4979618;28;94183;-31
2022/10/06 00:30:12;;;;;;;5.75;1.38;;;13.80;99.90;;;;;;4978234;28;95935;-35
2022/10/06 00:32:38;;;;;;;3.55;1.17;;;13.80;99.90;;;;;;4978951;28;95479;-32
2022/10/06 00:35:05;;;;;;;4.22;1.55;;;13.70;99.90;;;;;;4978839;28;94045;-32
2022/10/06 00:37:35;;;;;;;6.25;1.58;;;13.70;99.90;;;;;;4978429;28;92063;-32
2022/10/06 00:40:01;;;;;;;3.78;0.93;;;13.70;99.90;;;;;;4978146;28;94458;-31
2022/10/06 00:42:30;;;;;;;6.72;1.45;;;13.60;99.90;;;;;;4978213;28;94741;-33
2022/10/06 00:45:00;;;;;;;4.57;1.15;;;13.70;99.90;;;;;;4978491;28;92297;-33
2022/10/06 00:47:30;;;;;;;5.80;1.48;;;13.60;99.90;;;;;;4979116;28;93926;-33
2022/10/06 00:50:22;;;;;;;6.38;1.90;;;13.60;99.90;;;;;;4980354;28;94855;-34
2022/10/06 00:52:48;;;;;;;3.53;2.05;;;13.50;99.90;;;;;;4917338;28;94841;-32
2022/10/06 00:55:14;;;;;;;2.03;1.20;;;13.50;99.90;;;;;;4919659;28;93823;-31
2022/10/06 00:57:40;;;;;;;3.22;1.55;;;13.50;99.90;;;;;;4919035;28;94470;-30
2022/10/06 01:00:08;;;;;;;3.65;1.60;;;13.50;99.90;;;;;;4919084;28;94690;-31
2022/10/06 01:02:47;;;;;;;6.63;1.67;;;13.40;99.90;;;;;;4919816;28;96669;-30
2022/10/06 01:05:19;;;;;;;3.70;1.25;;;13.40;99.90;;;;;;4919815;28;93573;-31
2022/10/06 01:07:45;;;;;;;7.00;1.15;;;13.50;99.90;;;;;;4919098;28;93783;-30
2022/10/06 01:10:11;;;;;;;3.70;1.42;;;13.40;99.90;;;;;;4919662;28;94696;-32
2022/10/06 01:12:36;;;;;;;3.35;1.92;;;13.40;99.90;;;;;;4919242;28;94652;-31
2022/10/06 01:15:03;;;;;;;3.35;1.33;;;13.40;99.90;;;;;;4919495;28;94940;-32
2022/10/06 01:17:31;;;;;;;7.93;2.15;;;13.40;99.90;;;;;;4919636;28;92536;-30
2022/10/06 01:20:14;;;;;;;2.70;1.50;;;13.30;99.90;;;;;;4918613;28;97099;-29
2022/10/06 01:22:43;;;;;;;3.95;2.05;;;13.30;99.90;;;;;;4919472;28;95480;-30
2022/10/06 01:25:12;;;;;;;6.72;1.98;;;13.30;99.90;;;;;;4920156;28;94744;-34
2022/10/06 01:27:41;;;;;;;6.25;1.90;;;13.30;99.90;;;;;;4920024;28;93161;-33
2022/10/06 01:30:09;;;;;;;9.68;1.75;;;13.20;99.90;;;;;;4919212;28;94412;-35
2022/10/06 01:32:37;;;;;;;9.40;1.85;;;13.20;99.90;;;;;;4919306;28;94737;-34
2022/10/06 01:35:05;;;;;;;6.13;1.42;;;13.20;99.90;;;;;;4918680;28;92748;-33
2022/10/06 01:37:31;;;;;;;4.90;1.92;;;13.10;99.90;;;;;;4919469;28;92555;-34
2022/10/06 01:39:56;;;;;;;5.40;1.40;;;13.10;99.90;;;;;;4919113;28;94677;-32
2022/10/06 01:42:22;;;;;;;7.70;1.63;;;13.10;99.90;;;;;;4918282;28;94061;-32
2022/10/06 01:44:48;;;;;;;8.68;1.92;;;13.10;99.90;;;;;;4918463;28;95607;-35
2022/10/06 01:47:13;;;;;;;3.80;1.77;;;13.10;99.90;;;;;;4919134;28;93319;-33
2022/10/06 01:49:39;;;;;;;6.25;1.63;;;13.10;99.90;;;;;;4918912;28;94337;-36
2022/10/06 01:52:05;;;;;;;5.03;1.95;;;13.00;99.90;;;;;;4934588;28;94574;-32
2022/10/06 01:54:31;;;;;;;5.78;2.38;;;13.00;99.90;;;;;;4938057;28;94380;-35
2022/10/06 01:56:56;;;;;;;9.90;2.10;;;13.00;99.90;;;;;;4938739;28;92648;-34
2022/10/06 01:59:23;;;;;;;3.63;1.63;;;13.00;99.90;;;;;;4936856;28;94528;-35
2022/10/06 02:01:49;;;;;;;5.43;1.65;;;13.00;99.90;;;;;;4938387;28;94364;-34
2022/10/06 02:04:15;;;;;;;3.40;1.73;;;13.00;99.90;;;;;;4937797;28;92142;-33
2022/10/06 02:06:41;;;;;;;8.80;2.85;;;12.90;99.90;;;;;;4937972;28;93799;-31
2022/10/06 02:09:07;;;;;;;2.50;1.33;;;12.90;99.90;;;;;;4937096;28;95004;-35
2022/10/06 02:11:34;;;;;;;2.35;1.55;;;12.90;99.90;;;;;;4938113;28;96642;-29
2022/10/06 02:14:00;;;;;;;5.38;1.77;;;12.80;99.90;;;;;;4938100;28;94635;-31
2022/10/06 02:16:27;;;;;;;7.93;2.53;;;12.90;99.90;;;;;;4920593;28;94113;-31
2022/10/06 02:18:53;;;;;;;13.85;2.35;;;12.80;99.90;;;;;;4937965;28;95598;-31
2022/10/06 02:21:21;;;;;;;6.50;1.52;;;12.80;99.90;;;;;;4937123;28;93459;-30
2022/10/06 02:23:47;;;;;;;4.73;1.93;;;12.80;99.90;;;;;;4937885;28;94007;-30
2022/10/06 02:26:16;;;;;;;5.43;2.20;;;12.70;99.90;;;;;;4938794;28;93785;-29
2022/10/06 02:28:43;;;;;;;8.18;1.67;;;12.70;99.90;;;;;;4937644;28;94989;-29
2022/10/06 02:31:10;;;;;;;7.00;2.33;;;12.70;99.90;;;;;;4936984;28;93995;-29
2022/10/06 02:33:36;;;;;;;7.45;2.90;;;12.70;99.90;;;;;;4936861;28;95209;-30
2022/10/06 02:36:03;;;;;;;7.90;1.75;;;12.70;99.90;;;;;;4935610;28;92519;-30
2022/10/06 02:38:31;;;;;;;2.17;1.60;;;12.60;99.90;;;;;;4936782;28;94632;-31
2022/10/06 02:40:58;;;;;;;3.95;1.58;;;12.60;99.90;;;;;;4936758;28;94566;-30
2022/10/06 02:43:27;;;;;;;6.95;1.98;;;12.60;99.90;;;;;;4937471;28;93498;-29
2022/10/06 02:46:04;;;;;;;5.25;2.10;;;12.60;99.90;;;;;;4937859;28;94627;-28
2022/10/06 02:48:30;;;;;;;2.95;2.05;;;12.60;99.90;;;;;;4937604;28;94457;-30
2022/10/06 02:50:57;;;;;;;5.07;1.60;;;12.60;99.90;;;;;;4937109;28;94632;-31
2022/10/06 02:53:26;;;;;;;9.07;2.70;;;12.50;99.90;;;;;;4936763;28;94379;-29
2022/10/06 02:56:14;;;;;;;5.15;1.55;;;12.50;99.90;;;;;;4936885;28;93656;-30
2022/10/06 02:58:41;;;;;;;4.53;1.92;;;12.50;99.90;;;;;;4936653;28;95373;-33
2022/10/06 03:01:10;;;;;;;7.55;2.25;;;12.50;99.90;;;;;;4937591;28;95539;-29
2022/10/06 03:03:36;;;;;;;7.07;2.13;;;12.40;99.90;;;;;;4937244;28;94975;-31
2022/10/06 03:06:20;;;;;;;4.57;1.60;;;12.40;99.90;;;;;;4936793;28;93745;-34
2022/10/06 03:08:50;;;;;;;10.88;2.20;;;12.40;99.90;;;;;;4937718;28;94142;-34
2022/10/06 03:11:18;;;;;;;8.38;1.95;;;12.40;99.90;;;;;;4937077;28;94159;-34
2022/10/06 03:13:48;;;;;;;2.22;1.45;;;12.40;99.90;;;;;;4937611;28;93859;-32
2022/10/06 03:16:21;;;;;;;12.15;2.05;;;12.30;99.90;;;;;;4937252;28;93060;-32
2022/10/06 03:18:48;;;;;;;6.90;1.67;;;12.30;99.90;;;;;;4936591;28;95966;-34
2022/10/06 03:21:18;;;;;;;2.90;1.67;;;12.30;99.90;;;;;;4940023;28;94632;-31
2022/10/06 03:23:49;;;;;;;3.47;1.98;;;12.30;99.90;;;;;;4940570;28;92995;-33
2022/10/06 03:26:17;;;;;;;2.22;2.03;;;12.20;99.90;;;;;;4940900;28;92099;-32
2022/10/06 03:28:43;;;;;;;7.78;2.97;;;12.20;99.90;;;;;;4940392;28;94516;-31
2022/10/06 03:31:09;;;;;;;6.28;1.60;;;12.20;99.90;;;;;;4939662;28;95092;-33
2022/10/06 03:33:35;;;;;;;7.25;2.45;;;12.20;99.90;;;;;;4940702;28;94007;-32
2022/10/06 03:36:02;;;;;;;4.47;2.35;;;12.20;99.90;;;;;;4940117;28;93933;-33
2022/10/06 03:38:30;;;;;;;7.47;1.65;;;12.20;99.90;;;;;;4939745;28;93889;-34
2022/10/06 03:41:13;;;;;;;4.95;1.55;;;12.10;99.90;;;;;;4940521;28;94332;-32
2022/10/06 03:43:41;;;;;;;14.73;2.50;;;12.10;99.90;;;;;;4941277;28;92912;-32
2022/10/06 03:46:09;;;;;;;3.38;1.45;;;12.10;99.90;;;;;;4939350;28;93471;-32
2022/10/06 03:48:35;;;;;;;3.83;2.40;;;12.00;99.90;;;;;;4938789;28;95610;-32
2022/10/06 03:51:06;;;;;;;9.18;2.53;;;12.00;99.90;;;;;;4939570;28;95417;-35
2022/10/06 03:53:33;;;;;;;5.78;1.77;;;12.00;99.90;;;;;;4940687;28;94436;-33
2022/10/06 03:56:04;;;;;;;5.57;2.25;;;12.00;99.90;;;;;;4941028;28;92813;-32
2022/10/06 03:58:32;;;;;;;5.47;2.75;;;11.90;99.90;;;;;;4939658;28;95163;-33
2022/10/06 04:01:02;;;;;;;12.93;2.70;;;11.90;99.90;;;;;;4940086;28;93441;-33
2022/10/06 04:03:28;;;;;;;5.10;1.60;;;11.90;99.90;;;;;;4940712;28;94722;-31
2022/10/06 04:06:00;;;;;;;7.30;2.92;;;11.80;99.90;;;;;;4939955;28;91379;-32
2022/10/06 04:08:28;;;;;;;4.97;2.17;;;11.80;99.90;;;;;;4940228;28;94995;-33
2022/10/06 04:10:54;;;;;;;2.40;1.73;;;11.70;99.90;;;;;;4939329;28;94047;-32
2022/10/06 04:13:20;;;;;;;7.65;2.58;;;11.70;99.90;;;;;;4939075;28;94752;-34
2022/10/06 04:15:47;;;;;;;5.45;2.80;;;11.60;99.90;;;;;;4940193;28;94093;-31
2022/10/06 04:18:13;;;;;;;8.18;1.90;;;11.60;99.90;;;;;;4938877;28;94700;-34
2022/10/06 04:20:39;;;;;;;4.53;1.58;;;11.60;99.90;;;;;;4939746;28;94777;-31
2022/10/06 04:23:06;;;;;;;5.20;3.00;;;11.50;99.90;;;;;;4939848;28;93244;-31
2022/10/06 04:25:33;;;;;;;3.38;1.30;;;11.50;99.90;;;;;;4938823;28;94500;-34
2022/10/06 04:27:58;;;;;;;1.88;1.05;;;11.50;99.90;;;;;;4939097;28;93879;-33
2022/10/06 04:30:25;;;;;;;15.45;2.60;;;11.50;99.90;;;;;;4922003;28;94109;-32
2022/10/06 04:32:51;;;;;;;7.15;2.15;;;11.50;99.90;;;;;;4938472;28;93239;-35
2022/10/06 04:35:18;;;;;;;4.50;2.33;;;11.50;99.90;;;;;;4939049;28;93298;-32
2022/10/06 04:37:43;;;;;;;14.75;2.00;;;11.40;99.90;;;;;;4938743;28;95914;-33
2022/10/06 04:40:09;;;;;;;3.30;1.73;;;11.40;99.90;;;;;;4938673;28;95479;-32
2022/10/06 04:42:35;;;;;;;7.43;2.03;;;11.40;99.90;;;;;;4939567;28;93511;-32
2022/10/06 04:45:02;;;;;;;2.88;1.63;;;11.40;99.90;;;;;;4921650;28;94580;-31
2022/10/06 04:47:28;;;;;;;6.28;3.35;;;11.30;99.90;;;;;;4938430;28;94636;-34
2022/10/06 04:49:53;;;;;;;8.80;5.22;;;11.30;99.90;;;;;;4938985;28;94575;-32
2022/10/06 04:52:19;;;;;;;10.30;8.32;;;11.30;99.90;;;;;;4938152;28;93656;-32
2022/10/06 04:54:45;;;;;;;9.60;2.20;;;11.30;99.90;;;;;;4940125;28;91497;-30
2022/10/06 04:57:10;;;;;;;9.65;2.40;;;11.30;99.90;;;;;;4939016;28;95170;-33
2022/10/06 05:02:20;;;;;;;9.70;2.97;;;11.20;99.90;;;;;;4938049;28;93990;-31
2022/10/06 05:04:45;;;;;;;7.45;2.67;;;11.20;99.90;;;;;;4938603;28;93692;-32
2022/10/06 05:07:11;;;;;;;8.85;2.78;;;11.20;99.90;;;;;;4939711;28;95164;-31
2022/10/06 05:09:37;;;;;;;6.10;3.17;;;11.20;99.90;;;;;;4938645;28;94437;-32
2022/10/06 05:12:02;;;;;;;8.57;2.88;;;11.10;99.90;;;;;;4939436;28;92244;-34
2022/10/06 05:14:28;;;;;;;19.90;2.67;;;11.10;99.90;;;;;;4920440;28;93683;-31
2022/10/06 05:16:53;;;;;;;4.95;2.38;;;11.00;99.90;;;;;;4939273;28;95292;-29
2022/10/06 05:19:19;;;;;;;4.00;2.50;;;11.00;99.90;;;;;;4938578;28;94587;-33
2022/10/06 05:21:45;;;;;;;3.92;1.98;;;11.00;99.90;;;;;;4939291;28;92117;-31
2022/10/06 05:24:10;;;;;;;5.72;1.77;;;11.00;99.90;;;;;;4939041;28;92281;-33
2022/10/06 05:26:37;;;;;;;9.75;1.52;;;11.00;99.90;;;;;;4936788;28;96090;-30
2022/10/06 05:29:03;;;;;;;6.65;2.45;;;10.90;99.90;;;;;;4938755;28;94476;-31
2022/10/06 05:31:30;;;;;;;4.63;2.25;;;10.90;99.90;;;;;;4938654;28;92363;-32
2022/10/06 05:33:57;;;;;;;7.80;2.45;;;10.90;99.90;;;;;;4938554;28;94058;-29
2022/10/06 05:36:31;;;;;;;6.13;2.20;;;10.90;99.90;;;;;;4952743;28;94775;-32
2022/10/06 05:38:57;;;;;;;8.10;1.92;;;10.80;99.90;;;;;;4938003;28;95985;-30
2022/10/06 05:41:28;;;;;;;5.13;2.35;;;10.80;99.90;;;;;;4920939;28;93799;-34
2022/10/06 05:43:55;;;;;;;9.43;2.03;;;10.80;99.90;;;;;;4937876;28;93801;-33
2022/10/06 05:46:29;;;;;;;5.90;1.77;;;10.80;99.90;;;;;;4935824;28;95051;-30
2022/10/06 05:48:57;;;;;;;4.22;2.47;;;10.80;99.90;;;;;;4938069;28;94827;-29
2022/10/06 05:51:25;;;;;;;7.32;2.30;;;10.70;99.90;;;;;;4922808;28;94904;-31
2022/10/06 05:53:50;;;;;;;6.70;2.45;;;10.70;99.90;;;;;;4936823;28;93053;-31
2022/10/06 05:56:20;;;;;;;12.88;3.40;;;10.70;99.90;;;;;;4934071;28;95086;-31
2022/10/06 05:58:48;;;;;;;7.43;2.10;;;10.70;99.90;;;;;;4931590;28;94757;-31
2022/10/06 06:01:22;;;;;;;14.45;2.50;;;10.70;99.90;;;;;;4915144;28;93676;-31
2022/10/06 06:03:53;;;;;;;7.78;1.95;;;10.70;99.90;;;;;;4926291;28;94024;-31
2022/10/06 06:06:24;;;;;;;8.73;1.90;;;10.60;99.90;;;;;;4935749;28;94840;-31
2022/10/06 06:08:55;;;;;;;10.40;2.38;;;10.60;99.90;;;;;;4936265;28;94187;-31
2022/10/06 06:11:24;;;;;;;6.15;1.98;;;10.60;99.90;;;;;;4935675;28;93166;-29
2022/10/06 06:13:57;;;;;;;12.60;3.13;;;10.60;99.90;;;;;;4936488;28;94397;-30
2022/10/06 06:16:23;;;;;;;10.30;2.38;;;10.60;99.90;;;;;;4935338;28;96190;-31
2022/10/06 06:18:49;;;;;;;5.07;2.58;;;10.60;99.90;;;;;;4936481;28;94156;-30
2022/10/06 06:21:15;;;;;;;9.45;2.92;;;10.70;99.90;;;;;;4936462;28;94130;-33
2022/10/06 06:23:45;;;;;;;5.43;2.55;;;10.70;99.90;;;;;;4936329;28;92713;-30
2022/10/06 06:26:14;;;;;;;8.50;2.03;;;10.70;99.90;;;;;;4936151;28;94814;-30
2022/10/06 06:28:41;;;;;;;6.07;2.22;;;10.70;99.90;;;;;;4935909;28;94442;-31
2022/10/06 06:31:12;;;;;;;6.00;2.08;;;10.70;99.90;;;;;;4936283;28;93462;-32
2022/10/06 06:33:40;;;;;;;7.82;1.75;;;10.80;99.90;;;;;;4936170;28;92552;-31
2022/10/06 06:36:20;;;;;;;11.20;3.47;;;10.80;99.90;;;;;;4935400;28;95069;-33
2022/10/06 06:38:51;;;;;;;10.27;2.80;;;10.80;99.90;;;;;;4935465;28;95825;-32
2022/10/06 06:41:20;;;;;;;11.93;1.77;;;10.80;99.90;;;;;;4935789;28;94131;-31
2022/10/06 06:43:47;;;;;;;8.23;2.13;;;10.90;99.90;;;;;;4935322;28;93829;-32
2022/10/06 06:46:16;;;;;;;4.65;2.40;;;10.90;99.90;;;;;;4934339;28;96401;-31
2022/10/06 06:48:42;;;;;;;3.22;2.30;;;11.00;99.90;;;;;;4934110;28;94193;-30
2022/10/06 06:51:11;;;;;;;13.73;3.63;;;11.00;99.90;;;;;;4892453;28;1137459;-32
2022/10/06 06:53:38;;;;;;;11.18;3.40;;;11.00;99.90;;;;;;4935985;28;93201;-31
2022/10/06 06:56:05;;;;;;;8.20;2.65;;;11.10;99.90;;;;;;4933994;28;95039;-32
2022/10/06 06:58:31;;;;;;;7.30;3.47;;;11.20;99.90;;;;;;4934050;28;94286;-32
2022/10/06 07:01:10;;;;;;;7.95;2.10;;;11.20;99.90;;;;;;4935152;28;94143;-29
2022/10/06 07:03:38;;;;;;;12.68;2.83;;;11.30;99.90;;;;;;4935103;28;93190;-30
2022/10/06 07:06:08;;;;;;;4.32;2.50;;;11.30;99.90;;;;;;4934536;28;96151;-33
2022/10/06 07:08:44;;;;;;;25.38;3.03;;;11.40;99.90;;;;;;4934753;28;95857;-31
2022/10/06 07:11:18;;;;;;;6.63;3.58;;;11.50;99.90;;;;;;4917222;28;93624;-32
2022/10/06 07:13:44;;;;;;;8.82;2.17;;;11.60;99.90;;;;;;4935207;28;92558;-32
2022/10/06 07:27:27;;;;;;;9.20;3.53;;;12.10;99.90;;;;;;4934041;28;94296;-33
2022/10/06 07:29:55;;;;;;;8.48;3.28;;;12.10;99.90;;;;;;4930993;28;93664;-30
2022/10/06 07:32:25;;;;;;;9.70;2.83;;;12.20;99.90;;;;;;4915319;28;94384;-31
2022/10/06 07:34:51;;;;;;;4.53;2.95;;;12.30;99.90;;;;;;4930446;28;93352;-32
2022/10/06 07:37:17;;;;;;;6.50;2.25;;;12.30;99.90;;;;;;4934212;28;94436;-34
2022/10/06 07:39:44;;;;;;;9.18;2.90;;;12.40;99.90;;;;;;4933591;28;94486;-30
2022/10/06 07:42:14;;;;;;;7.93;2.53;;;12.50;99.90;;;;;;4935829;28;92282;-31
2022/10/06 07:45:37;;;;;;;9.45;2.97;;;12.60;99.90;;;;;;4936040;28;94439;-33
2022/10/06 07:47:30;;;;;;;10.25;3.10;;;12.60;99.90;;;;;;4935534;28;94452;-31
2022/10/06 07:49:57;;;;;;;5.93;2.08;;;12.70;99.90;;;;;;4936927;28;94473;-33
2022/10/06 07:52:23;;;;;;;10.48;2.88;;;12.80;99.90;;;;;;4936719;28;93080;-33
2022/10/06 07:54:49;;;;;;;8.85;2.38;;;12.90;99.90;;;;;;4935934;28;93872;-29
2022/10/06 07:57:15;;;;;;;6.18;2.33;;;12.90;99.90;;;;;;4935402;28;95085;-33
2022/10/06 07:59:40;;;;;;;13.18;2.22;;;13.00;99.90;;;;;;4935834;28;96984;-31
2022/10/06 08:02:06;;;;;;;6.55;2.58;;;13.10;99.90;;;;;;4936935;28;93971;-32
2022/10/06 08:04:31;;;;;;;11.00;2.13;;;13.20;99.90;;;;;;4936415;28;92096;-32
2022/10/06 08:06:58;;;;;;;10.90;3.08;;;13.20;99.90;;;;;;4938045;28;94674;-32
2022/10/06 08:09:24;;;;;;;7.47;2.90;;;13.30;99.90;;;;;;4939280;28;94940;-33
2022/10/06 08:11:49;;;;;;;5.40;2.90;;;13.40;99.90;;;;;;4939473;28;93465;-33
2022/10/06 08:14:15;;;;;;;11.40;3.33;;;13.50;99.90;;;;;;4939911;28;92956;-32
2022/10/06 08:16:40;;;;;;;18.95;3.25;;;13.50;99.90;;;;;;4939189;28;94700;-32
2022/10/06 08:19:06;;;;;;;23.13;2.90;;;13.60;99.90;;;;;;4938832;28;94402;-32
2022/10/06 08:21:35;;;;;;;8.70;2.30;;;13.70;99.90;;;;;;4939749;28;95935;-30
2022/10/06 08:24:01;;;;;;;9.05;2.75;;;13.80;99.90;;;;;;4939609;28;93016;-30
2022/10/06 08:26:28;;;;;;;7.28;2.30;;;13.90;99.90;;;;;;4938877;28;94802;-32
2022/10/06 08:29:01;;;;;;;10.02;2.85;;;14.00;99.90;;;;;;4939778;28;94261;-30
2022/10/06 08:31:28;;;;;;;11.05;2.05;;;14.10;99.90;;;;;;4938459;28;92587;-32
2022/10/06 08:33:55;;;;;;;6.00;2.72;;;14.10;99.90;;;;;;4939702;28;94451;-31
2022/10/06 08:36:22;;;;;;;10.95;2.95;;;14.20;99.90;;;;;;4938977;28;94022;-30
2022/10/06 08:38:51;;;;;;;6.25;2.60;;;14.30;99.90;;;;;;4939481;28;94279;-32
2022/10/06 08:41:38;;;;;;;7.97;2.28;;;14.30;99.90;;;;;;4939264;28;92943;-32
2022/10/06 08:44:18;;;;;;;10.13;2.58;;;14.40;99.90;;;;;;4938802;28;92943;-31
2022/10/06 08:46:56;;;;;;;11.77;3.13;;;14.40;99.90;;;;;;4938044;28;94406;-31
2022/10/06 08:49:24;;;;;;;;;;;14.50;99.90;;;;;;4939067;28;95405;-33
2022/10/06 08:51:59;;;;;;;8.63;2.58;;;14.60;99.90;;;;;;4921986;28;93503;-32
2022/10/06 08:54:33;;;;;;;8.95;3.47;;;14.70;99.90;;;;;;4938938;28;93534;-31
2022/10/06 08:57:05;;;;;;;4.63;2.00;;;14.80;99.90;;;;;;4938729;28;95533;-32
2022/10/06 08:59:34;;;;;;;15.90;3.63;;;14.90;99.90;;;;;;4938198;28;95950;-31
2022/10/06 09:02:03;;;;;;;;;;;15.00;99.90;;;;;;4939183;28;92430;-30
2022/10/06 09:04:30;;;;;;;9.68;2.80;;;15.00;99.90;;;;;;4939684;28;91377;-29
2022/10/06 09:07:02;;;;;;;12.73;2.80;;;15.00;99.90;;;;;;4938924;28;94814;-30
2022/10/06 09:09:40;;;;;;;8.85;4.05;;;15.10;99.90;;;;;;4938552;28;94458;-33
2022/10/06 09:12:26;;;;;;;15.38;2.95;;;15.10;99.90;;;;;;4938064;28;93473;-30
2022/10/06 09:15:06;;;;;;;7.05;2.53;;;15.20;99.90;;;;;;4939103;28;94523;-31
2022/10/06 09:17:38;;;;;;;3.72;1.33;;;15.30;99.90;;;;;;4937402;28;97300;-33
2022/10/06 09:20:18;;;;;;;9.32;3.20;;;15.30;99.90;;;;;;4937792;28;94579;-33
2022/10/06 09:22:46;;;;;;;8.95;3.03;;;15.40;99.90;;;;;;4938665;28;94103;-33
2022/10/06 09:25:18;;;;;;;6.13;2.92;;;15.40;99.90;;;;;;4938508;28;94823;-32
2022/10/06 09:27:49;;;;;;;5.43;1.95;;;15.40;99.90;;;;;;4938578;28;94765;-32
2022/10/06 09:30:15;;;;;;;9.80;2.67;;;15.50;99.90;;;;;;4938631;28;93874;-32
2022/10/06 09:32:46;;;;;;;13.80;2.60;;;15.40;99.90;;;;;;4938180;28;94104;-33
2022/10/06 09:35:22;;;;;;;11.00;2.58;;;15.40;99.90;;;;;;4938433;28;93523;-35
2022/10/06 09:38:03;;;;;;;8.63;2.30;;;15.40;99.90;;;;;;4937895;28;95698;-31
2022/10/06 09:40:50;;;;;;;6.70;2.80;;;15.50;99.90;;;;;;4937383;28;95573;-30
2022/10/06 09:43:28;;;;;;;7.47;2.38;;;15.60;99.90;;;;;;4938049;28;93668;-33
2022/10/06 09:46:22;;;;;;;6.75;2.08;;;15.60;99.90;;;;;;4938310;28;94242;-33
2022/10/06 09:49:14;;;;;;;22.13;2.45;;;15.70;99.90;;;;;;4938799;28;95252;-30
2022/10/06 09:51:40;;;;;;;7.03;2.42;;;15.80;99.90;;;;;;4937853;28;94393;-33
2022/10/06 09:54:14;;;;;;;7.97;2.17;;;15.70;99.90;;;;;;4938563;28;93361;-31
2022/10/06 09:56:44;;;;;;;5.07;2.40;;;15.80;99.90;;;;;;4938233;28;92339;-32
2022/10/06 09:59:22;;;;;;;4.35;2.25;;;15.80;99.90;;;;;;4938082;28;94507;-30
2022/10/06 10:01:56;;;;;;;15.87;3.27;;;15.80;99.90;;;;;;4937790;28;94826;-30
2022/10/06 10:04:34;;;;;;;7.80;1.88;;;15.80;99.90;;;;;;4937890;28;95514;-32
2022/10/06 10:07:23;;;;;;;5.18;1.90;;;15.80;99.90;;;;;;4938008;28;92193;-31
2022/10/06 10:09:50;;;;;;;4.78;1.80;;;15.80;99.90;;;;;;4937657;28;94645;-31
2022/10/06 10:12:26;;;;;;;10.02;2.58;;;15.80;99.90;;;;;;4937055;28;94576;-30
2022/10/06 10:14:56;;;;;;;5.78;1.90;;;15.80;99.90;;;;;;4938323;28;93188;-31
2022/10/06 10:17:45;;;;;;;4.82;1.92;;;15.80;99.90;;;;;;4937551;28;95545;-32
2022/10/06 10:20:37;;;;;;;5.38;2.33;;;15.80;99.90;;;;;;4937472;28;94996;-33
2022/10/06 10:23:07;;;;;;;4.78;2.28;;;15.90;99.90;;;;;;4906335;28;94529;-33
2022/10/06 10:25:46;;;;;;;4.13;1.65;;;16.00;99.90;;;;;;4937777;28;92402;-30
2022/10/06 10:28:16;;;;;;;3.60;1.65;;;16.10;99.90;;;;;;4937553;28;93820;-34
2022/10/06 10:31:28;;;;;;;5.60;2.15;;;16.10;99.90;;;;;;4935666;28;95784;-31
2022/10/06 10:34:01;;;;;;;5.97;3.00;;;16.10;99.90;;;;;;4934049;28;95572;-32
2022/10/06 10:36:36;;;;;;;7.60;2.22;;;15.90;99.90;;;;;;4936987;28;94053;-32
2022/10/06 10:39:05;;;;;;;9.07;2.80;;;15.70;99.90;;;;;;4937992;28;94376;-30
2022/10/06 10:41:43;;;;;;;17.92;2.65;;;15.70;99.90;;;;;;4936305;28;94475;-31
2022/10/06 10:44:13;;;;;;;8.23;2.88;;;15.70;99.90;;;;;;4937842;28;94754;-33
2022/10/06 10:46:48;;;;;;;7.00;2.40;;;15.90;99.90;;;;;;4937710;28;92385;-33
2022/10/06 10:49:28;;;;;;;6.72;2.65;;;16.10;99.90;;;;;;4936996;28;92261;-31
2022/10/06 10:52:08;;;;;;;3.95;1.60;;;16.30;99.90;;;;;;4936749;28;96323;-31
2022/10/06 10:54:45;;;;;;;4.22;2.05;;;16.20;99.90;;;;;;4937096;28;94940;-29
2022/10/06 10:57:18;;;;;;;7.15;2.42;;;16.10;99.90;;;;;;4937411;28;94331;-31
2022/10/06 10:59:46;;;;;;;2.33;1.55;;;16.20;99.90;;;;;;4937770;28;94547;-31
2022/10/06 11:02:14;;;;;;;;;;;16.30;99.90;;;;;;4937290;28;93619;-36
2022/10/06 11:04:46;;;;;;;6.80;2.13;;;16.30;99.90;;;;;;4938274;28;94954;-31
2022/10/06 11:07:35;;;;;;;3.38;1.77;;;16.30;99.90;;;;;;4909461;28;94373;-36
2022/10/06 11:10:20;;;;;;;4.22;1.95;;;16.10;99.90;;;;;;4878362;28;101477;-33
2022/10/06 11:13:01;;;;;;;6.30;2.15;;;16.00;99.90;;;;;;4915871;28;94733;-30
2022/10/06 11:15:45;;;;;;;7.30;2.42;;;16.00;99.90;;;;;;4904081;28;94522;-33
2022/10/06 11:18:24;;;;;;;5.88;2.25;;;16.20;99.90;;;;;;4915209;28;93283;-33
2022/10/06 11:21:14;;;;;;;4.10;2.10;;;16.40;99.90;;;;;;4914533;28;94153;-30
2022/10/06 11:23:48;;;;;;;1.75;1.63;;;16.40;99.90;;;;;;4914733;28;95674;-30
2022/10/06 11:26:47;;;;;;;5.80;2.42;;;16.60;99.90;;;;;;4915659;28;95004;-31
2022/10/06 11:29:49;;;;;;;6.68;2.35;;;16.80;99.90;;;;;;4915842;28;93357;-35
2022/10/06 11:32:38;;;;;;;9.10;2.58;;;17.00;99.90;;;;;;4915160;28;94797;-33
2022/10/06 11:35:20;;;;;;;4.35;2.88;;;17.00;99.90;;;;;;4915186;28;94735;-33
2022/10/06 11:37:52;;;;;;;11.73;3.10;;;16.90;99.90;;;;;;4915721;28;94448;-34
2022/10/06 11:40:36;;;;;;;3.65;1.80;;;16.80;99.90;;;;;;4915544;28;94261;-32
2022/10/06 11:43:28;;;;;;;5.55;2.53;;;17.00;99.90;;;;;;4919761;28;93652;-31
2022/10/06 11:46:11;;;;;;;4.55;2.50;;;17.00;99.90;;;;;;4917788;28;95174;-31
2022/10/06 11:48:37;;;;;;;5.90;2.03;;;17.20;99.90;;;;;;4913628;28;94508;-32
2022/10/06 11:51:25;;;;;;;8.05;2.25;;;17.30;99.90;;;;;;4903698;28;94327;-32
2022/10/06 11:53:51;;;;;;;7.65;2.05;;;17.40;99.90;;;;;;4918743;28;93500;-33
2022/10/06 11:56:17;;;;;;;8.30;2.17;;;17.40;99.90;;;;;;4917746;28;94605;-33
2022/10/06 11:58:54;;;;;;;7.72;2.47;;;17.40;99.90;;;;;;4917448;28;94728;-31
2022/10/06 12:01:38;;;;;;;3.80;2.40;;;17.30;99.90;;;;;;4917917;28;94766;-33
2022/10/06 12:04:09;;;;;;;8.48;1.65;;;17.40;99.90;;;;;;4919146;28;92227;-34
2022/10/06 12:06:41;;;;;;;6.75;2.58;;;17.40;99.90;;;;;;4917895;28;94696;-32
2022/10/06 12:09:41;;;;;;;2.40;1.70;;;17.40;99.90;;;;;;4917991;28;94331;-32
2022/10/06 12:12:07;;;;;;;8.10;1.67;;;17.40;99.90;;;;;;4899822;28;93464;-31
2022/10/06 12:14:38;;;;;;;5.47;2.03;;;17.40;99.90;;;;;;4917474;28;93436;-31
2022/10/06 12:17:12;;;;;;;2.58;1.15;;;17.50;99.90;;;;;;4917286;28;96765;-34
2022/10/06 12:20:15;;;;;;;6.28;1.85;;;17.50;99.90;;;;;;4901003;28;97311;-30
2022/10/06 12:22:52;;;;;;;5.22;1.77;;;17.50;99.90;;;;;;4918285;28;94367;-33
2022/10/06 12:25:56;;;;;;;6.47;1.35;;;17.60;99.90;;;;;;4918024;28;94421;-35
2022/10/06 12:28:40;;;;;;;11.13;3.97;;;17.50;99.90;;;;;;4909840;28;95267;-31
2022/10/06 12:31:23;;;;;;;5.68;2.30;;;17.40;99.90;;;;;;4917202;28;93585;-33
2022/10/06 12:33:49;;;;;;;1.75;1.15;;;17.50;99.90;;;;;;4918596;28;93298;-31
2022/10/06 12:36:31;;;;;;;4.15;1.90;;;17.60;99.90;;;;;;4917864;28;91888;-33
2022/10/06 12:39:03;;;;;;;2.50;1.42;;;17.70;99.90;;;;;;4917961;28;94210;-33
2022/10/06 12:41:57;;;;;;;3.58;1.17;;;17.70;99.90;;;;;;4917431;28;93555;-30
2022/10/06 12:44:51;;;;;;;5.93;1.40;;;17.70;99.90;;;;;;4917373;28;95417;-32
2022/10/06 12:47:31;;;;;;;5.07;1.60;;;17.70;99.90;;;;;;4917310;28;93400;-32
2022/10/06 12:50:04;;;;;;;6.32;1.88;;;17.70;99.90;;;;;;4917500;28;95075;-30
2022/10/06 12:53:03;;;;;;;4.60;1.60;;;17.80;99.90;;;;;;4953547;28;93577;-34
2022/10/06 12:55:40;;;;;;;2.92;1.02;;;17.90;99.90;;;;;;4956052;28;93300;-32
2022/10/06 12:58:19;;;;;;;3.10;1.42;;;18.00;99.90;;;;;;4955625;28;93311;-34
2022/10/06 13:00:46;;;;;;;3.38;1.27;;;18.10;99.90;;;;;;4953513;28;94874;-32
2022/10/06 13:03:23;;;;;;;4.32;1.38;;;18.10;99.90;;;;;;4948663;28;95049;-34
2022/10/06 13:06:08;;;;;;;4.13;1.33;;;18.00;99.90;;;;;;4953786;28;94070;-32
2022/10/06 13:08:36;;;;;;;2.22;1.08;;;17.90;99.90;;;;;;4955989;28;94170;-33
2022/10/06 13:11:31;;;;;;;6.15;1.40;;;17.90;99.90;;;;;;4954780;28;95497;-33
2022/10/06 13:14:07;;;;;;;1.85;1.33;;;18.10;99.90;;;;;;4931283;28;95228;-31
2022/10/06 13:16:39;;;;;;;4.10;1.30;;;18.10;99.90;;;;;;4955894;28;92093;-30
2022/10/06 13:19:15;;;;;;;3.72;1.35;;;18.10;99.90;;;;;;4954591;28;92422;-31
2022/10/06 13:21:40;;;;;;;13.48;1.52;;;18.10;99.90;;;;;;4955391;28;94556;-30